Mountain Lake, MN

12:00 AM CDT on August 30, 2014 (GMT -0500)
Windom Municipal | Change Station
CLOSE
Current Station
Airport
Location: Windom,
Elevation: 1411 ft
Nearby Weather Stations

Elev 1411 ft 43.91 °N, 95.11 °W | Updated 7 minutes ago

Overcast
Overcast
66 °F
Feels Like 66 °F
N
0
Wind Variable Wind from North

Today
High -- | Low -- °F
--% Chance of Precip.
Yesterday
High -- | Low -- °F
Precip. -- in
6:40 AM 7:58 PM
Waxing Crescent, 19% visible
Pressure 29.82 in
Visibility 7.0 miles
Clouds Mostly Cloudy 1000 ft
Overcast 8000 ft
Dew Point 64 °F
Humidity 94%
Rainfall 0.00 in
Snow Depth Not available.
UV 0 out of 12
Pollen 8.60 out of 12
Air Quality Not available.
Flu Activity Not available.
METAR KMWM 300453Z AUTO 00000KT 7SM BKN010 OVC080 19/18 A2982 RMK AO2

More Conditions Fewer Conditions

Pressure 29.82 in
Visibility 7.0 miles
Clouds Mostly Cloudy 1000 ft
Overcast 8000 ft
Dew Point 64 °F
Humidity 94%
Rainfall 0.00 in
Snow Depth Not available.
UV 0 out of 12
Pollen 8.60 out of 12
Air Quality Not available.
Flu Activity Not available.
METAR KMWM 300453Z AUTO 00000KT 7SM BKN010 OVC080 19/18 A2982 RMK AO2

More Conditions Fewer Conditions

10-Day Weather Forecast

Almanac

Astronomy

Aug. 30, 2014 Rise Set
Actual Time 6:40 AM CDT 7:58 PM CDT
Civil Twilight 6:10 AM CDT 8:28 PM CDT
Nautical Twilight 5:34 AM CDT 9:04 PM CDT
Astronomical Twilight 4:56 AM CDT 9:42 PM CDT
Moon 11:40 AM CDT 10:22 PM CDT
Length of Visible Light 14h 17m
Length of Day
13h 18m
Tomorrow will be 2m 53s shorter.
Waxing Crescent, 19% of the Moon is Illuminated
Today
Waxing Crescent
Sep 2
First Quarter
Sep 8
Full
Sep 15
Last Quarter
Sep 24
New

Today's Extremes

State Highs State Lows

Community

WunderPhotos

Upload Photos

1,748,459 photos uploaded!

Nearby

Snow Depth

Station Depth Elevation
No new snow has been reported.

Earthquake Activity

City Distance Mag. Time & Date
No recent earthquake activity has been reported nearby.
Minimum magnitude displayed is 2.5.

Coastal Water Temperatures

Place Temperature
No Stations Reporting

Nearby Weather Stations